createdAt,value
2019-01-21T00:00:45.616Z,-5.9
2019-01-21T00:01:48.298Z,-5.9
2019-01-21T00:02:50.310Z,-5.9
2019-01-21T00:03:52.334Z,-5.9
2019-01-21T00:04:54.344Z,-5.9
2019-01-21T00:05:56.751Z,-5.9
2019-01-21T00:06:58.756Z,-5.8
2019-01-21T00:08:01.068Z,-5.8
2019-01-21T00:09:03.070Z,-5.8
2019-01-21T00:10:05.088Z,-5.8
2019-01-21T00:11:07.393Z,-5.9
2019-01-21T00:12:09.397Z,-5.8
2019-01-21T00:13:12.092Z,-5.8
2019-01-21T00:14:14.680Z,-5.9
2019-01-21T00:15:17.083Z,-5.9
2019-01-21T00:16:19.413Z,-5.8
2019-01-21T00:17:23.794Z,-5.9
2019-01-21T00:18:25.805Z,-5.9
2019-01-21T00:19:27.816Z,-5.9
2019-01-21T00:20:29.890Z,-5.9
2019-01-21T00:21:32.178Z,-5.9
2019-01-21T00:22:34.193Z,-6
2019-01-21T00:23:36.198Z,-6
2019-01-21T00:24:38.595Z,-6
2019-01-21T00:25:40.898Z,-5.9
2019-01-21T00:26:42.910Z,-6
2019-01-21T00:27:44.935Z,-6
2019-01-21T00:28:46.955Z,-6
2019-01-21T00:29:49.243Z,-5.9
2019-01-21T00:30:51.576Z,-6
2019-01-21T00:31:53.607Z,-5.9
2019-01-21T00:32:55.604Z,-5.9
2019-01-21T00:33:57.623Z,-5.9
2019-01-21T00:34:59.632Z,-5.9
2019-01-21T00:36:01.645Z,-5.8
2019-01-21T00:37:04.762Z,-5.8
2019-01-21T00:38:07.052Z,-5.8
2019-01-21T00:39:09.081Z,-5.8
2019-01-21T00:40:11.094Z,-5.7
2019-01-21T00:41:13.555Z,-5.7
2019-01-21T00:42:15.559Z,-5.8
2019-01-21T00:43:17.876Z,-5.7
2019-01-21T00:44:19.898Z,-5.7
2019-01-21T00:45:21.901Z,-5.7
2019-01-21T00:46:23.927Z,-5.8
2019-01-21T00:47:31.249Z,-5.8
2019-01-21T00:48:33.266Z,-5.8
2019-01-21T00:49:35.267Z,-5.8
2019-01-21T00:50:37.580Z,-5.9
2019-01-21T00:51:39.606Z,-5.9
2019-01-21T00:52:41.621Z,-5.9
2019-01-21T00:53:43.644Z,-5.9
2019-01-21T00:54:45.936Z,-5.9
2019-01-21T00:55:48.012Z,-5.8
2019-01-21T00:56:50.432Z,-5.8
2019-01-21T00:57:52.450Z,-5.8
2019-01-21T00:58:54.457Z,-5.7
2019-01-21T00:59:56.751Z,-5.7
2019-01-21T01:00:58.766Z,-5.7
2019-01-21T01:02:00.781Z,-5.8
2019-01-21T01:03:02.795Z,-5.8
2019-01-21T01:04:04.806Z,-5.8
2019-01-21T01:05:06.827Z,-5.8
2019-01-21T01:06:08.823Z,-5.8
2019-01-21T01:07:10.843Z,-5.8
2019-01-21T01:08:12.858Z,-5.8
2019-01-21T01:09:14.870Z,-5.8
2019-01-21T01:10:16.894Z,-5.7
2019-01-21T01:11:18.906Z,-5.8
2019-01-21T01:12:20.921Z,-5.8
2019-01-21T01:13:23.312Z,-5.8
2019-01-21T01:14:25.338Z,-5.8
2019-01-21T01:15:27.344Z,-5.7
2019-01-21T01:16:29.362Z,-5.8
2019-01-21T01:17:38.468Z,-5.7
2019-01-21T01:18:40.469Z,-5.8
2019-01-21T01:19:42.541Z,-5.8
2019-01-21T01:20:44.934Z,-5.7
2019-01-21T01:21:46.952Z,-5.7
2019-01-21T01:22:48.949Z,-5.7
2019-01-21T01:23:50.973Z,-5.7
2019-01-21T01:24:53.003Z,-5.7
2019-01-21T01:25:55.008Z,-5.6
2019-01-21T01:26:57.033Z,-5.6
2019-01-21T01:27:59.038Z,-5.6
2019-01-21T01:29:01.075Z,-5.7
2019-01-21T01:30:03.379Z,-5.6
2019-01-21T01:31:05.394Z,-5.6
2019-01-21T01:32:07.397Z,-5.6
2019-01-21T01:33:09.416Z,-5.5
2019-01-21T01:34:11.428Z,-5.6
2019-01-21T01:35:14.003Z,-5.7
2019-01-21T01:36:16.024Z,-5.7
2019-01-21T01:37:18.039Z,-5.7
2019-01-21T01:38:20.061Z,-5.7
2019-01-21T01:39:22.068Z,-5.7
2019-01-21T01:40:24.091Z,-5.7
2019-01-21T01:41:26.398Z,-5.7
2019-01-21T01:42:28.436Z,-5.8
2019-01-21T01:43:30.759Z,-5.7
2019-01-21T01:44:32.816Z,-5.7
2019-01-21T01:45:34.849Z,-5.7
2019-01-21T01:46:36.876Z,-5.7
2019-01-21T01:47:46.312Z,-5.7
2019-01-21T01:48:49.067Z,-5.8
2019-01-21T01:49:51.646Z,-5.8
2019-01-21T01:50:54.082Z,-5.8
2019-01-21T01:51:56.114Z,-5.8
2019-01-21T01:52:58.169Z,-5.8
2019-01-21T01:54:00.198Z,-5.8
2019-01-21T01:55:02.521Z,-5.8
2019-01-21T01:56:04.542Z,-5.7
2019-01-21T01:57:06.601Z,-5.7
2019-01-21T01:58:08.640Z,-5.8
2019-01-21T01:59:10.664Z,-5.8
2019-01-21T02:00:12.722Z,-5.8
2019-01-21T02:01:15.532Z,-5.8
2019-01-21T02:02:18.354Z,-5.8
2019-01-21T02:03:20.403Z,-5.9
2019-01-21T02:04:22.444Z,-5.8
2019-01-21T02:05:24.479Z,-5.9
2019-01-21T02:06:26.509Z,-5.8
2019-01-21T02:07:28.539Z,-5.8
2019-01-21T02:08:30.585Z,-5.8
2019-01-21T02:09:33.044Z,-5.8
2019-01-21T02:10:35.357Z,-5.9
2019-01-21T02:11:37.393Z,-5.9
2019-01-21T02:12:39.460Z,-5.9
2019-01-21T02:13:42.331Z,-5.9
2019-01-21T02:14:44.918Z,-5.9
2019-01-21T02:15:47.342Z,-5.9
2019-01-21T02:16:49.761Z,-5.9
2019-01-21T02:17:53.375Z,-5.9
2019-01-21T02:18:55.413Z,-6
2019-01-21T02:19:57.469Z,-6
2019-01-21T02:20:59.485Z,-5.9
2019-01-21T02:22:01.517Z,-5.9
2019-01-21T02:23:03.553Z,-5.9
2019-01-21T02:24:05.615Z,-5.9
2019-01-21T02:25:07.947Z,-5.9
2019-01-21T02:26:11.234Z,-5.8
2019-01-21T02:27:13.888Z,-5.8
2019-01-21T02:28:15.915Z,-5.9
2019-01-21T02:29:18.262Z,-6
2019-01-21T02:30:20.300Z,-6
2019-01-21T02:31:22.632Z,-5.9
2019-01-21T02:32:24.673Z,-5.9
2019-01-21T02:33:26.695Z,-5.9
2019-01-21T02:34:28.798Z,-6
2019-01-21T02:35:30.858Z,-6
2019-01-21T02:36:32.904Z,-6
2019-01-21T02:37:35.321Z,-6
2019-01-21T02:38:38.396Z,-6
2019-01-21T02:39:41.163Z,-5.9
2019-01-21T02:40:43.872Z,-6
2019-01-21T02:41:46.741Z,-6
2019-01-21T02:42:48.766Z,-5.9
2019-01-21T02:43:51.233Z,-6
2019-01-21T02:44:53.288Z,-5.9
2019-01-21T02:45:55.331Z,-6
2019-01-21T02:46:57.781Z,-5.9
2019-01-21T02:48:01.388Z,-5.9
2019-01-21T02:49:03.431Z,-5.9
2019-01-21T02:50:05.778Z,-5.9
2019-01-21T02:51:08.477Z,-5.9
2019-01-21T02:52:11.234Z,-5.9
2019-01-21T02:53:14.176Z,-5.9
2019-01-21T02:54:16.211Z,-5.9
2019-01-21T02:55:18.253Z,-5.9
2019-01-21T02:56:20.569Z,-5.9
2019-01-21T02:57:22.595Z,-5.9
2019-01-21T02:58:24.654Z,-5.9
2019-01-21T02:59:26.690Z,-5.9
2019-01-21T03:00:29.022Z,-5.9
2019-01-21T03:01:31.061Z,-5.9
2019-01-21T03:02:33.124Z,-5.9
2019-01-21T03:03:35.604Z,-5.9
2019-01-21T03:04:38.482Z,-5.9
2019-01-21T03:05:41.230Z,-5.9
2019-01-21T03:06:43.262Z,-5.9
2019-01-21T03:07:46.051Z,-5.9
2019-01-21T03:08:48.088Z,-5.8
2019-01-21T03:09:50.793Z,-5.8
2019-01-21T03:10:53.881Z,-5.8
2019-01-21T03:11:56.255Z,-5.8
2019-01-21T03:12:58.309Z,-5.8
2019-01-21T03:14:00.358Z,-5.8
2019-01-21T03:15:02.418Z,-5.8
2019-01-21T03:16:04.448Z,-5.7
2019-01-21T03:17:07.369Z,-5.7
2019-01-21T03:18:10.050Z,-5.7
2019-01-21T03:19:12.068Z,-5.7
2019-01-21T03:20:14.105Z,-5.8
2019-01-21T03:21:16.148Z,-5.8
2019-01-21T03:22:18.557Z,-5.8
2019-01-21T03:23:20.608Z,-5.7
2019-01-21T03:24:22.630Z,-5.8
2019-01-21T03:25:24.939Z,-5.8
2019-01-21T03:26:26.992Z,-5.8
2019-01-21T03:27:29.387Z,-5.8
2019-01-21T03:28:31.700Z,-5.8
2019-01-21T03:29:34.650Z,-5.8
2019-01-21T03:30:38.107Z,-5.9
2019-01-21T03:31:40.462Z,-5.9
2019-01-21T03:32:43.157Z,-5.8
2019-01-21T03:33:45.850Z,-5.8
2019-01-21T03:34:48.570Z,-5.8
2019-01-21T03:35:50.659Z,-5.8
2019-01-21T03:36:53.396Z,-5.8
2019-01-21T03:37:55.489Z,-5.8
2019-01-21T03:38:57.872Z,-5.8
2019-01-21T03:39:59.928Z,-5.8
2019-01-21T03:41:02.262Z,-5.9
2019-01-21T03:42:05.077Z,-5.9
2019-01-21T03:43:07.651Z,-5.8
2019-01-21T03:44:09.717Z,-5.8
2019-01-21T03:45:11.779Z,-5.8
2019-01-21T03:46:14.138Z,-5.8
2019-01-21T03:47:16.180Z,-5.8
2019-01-21T03:48:18.806Z,-5.8
2019-01-21T03:49:21.234Z,-5.9
2019-01-21T03:50:23.276Z,-5.8
2019-01-21T03:51:25.335Z,-5.9
2019-01-21T03:52:27.414Z,-5.8
2019-01-21T03:53:29.459Z,-5.9
2019-01-21T03:54:32.516Z,-5.8
2019-01-21T03:55:35.455Z,-5.8
2019-01-21T03:56:37.503Z,-5.8
2019-01-21T03:57:39.536Z,-5.8
2019-01-21T03:58:41.569Z,-5.8
2019-01-21T03:59:43.892Z,-5.8
2019-01-21T04:00:45.957Z,-5.8
2019-01-21T04:01:47.984Z,-5.8
2019-01-21T04:02:50.357Z,-5.8
2019-01-21T04:03:52.691Z,-5.8
2019-01-21T04:04:54.725Z,-5.8
2019-01-21T04:05:57.072Z,-5.8
2019-01-21T04:06:59.809Z,-5.8
2019-01-21T04:08:02.280Z,-5.8
2019-01-21T04:09:04.315Z,-5.8
2019-01-21T04:10:06.365Z,-5.8
2019-01-21T04:11:08.404Z,-5.9
2019-01-21T04:12:10.508Z,-5.9
2019-01-21T04:13:12.543Z,-5.8
2019-01-21T04:14:14.637Z,-5.8
2019-01-21T04:15:17.081Z,-5.8
2019-01-21T04:16:19.114Z,-5.7
2019-01-21T04:17:21.175Z,-5.7
2019-01-21T04:18:25.725Z,-5.6
2019-01-21T04:19:28.688Z,-5.7
2019-01-21T04:20:33.449Z,-5.7
2019-01-21T04:21:35.982Z,-5.7
2019-01-21T04:22:38.012Z,-5.7
2019-01-21T04:23:40.066Z,-5.7
2019-01-21T04:24:42.121Z,-5.7
2019-01-21T04:25:44.523Z,-5.6
2019-01-21T04:26:46.575Z,-5.7
2019-01-21T04:27:48.622Z,-5.7
2019-01-21T04:28:50.941Z,-5.7
2019-01-21T04:29:53.287Z,-5.7
2019-01-21T04:30:56.016Z,-5.7
2019-01-21T04:31:58.830Z,-5.7
2019-01-21T04:33:01.012Z,-5.7
2019-01-21T04:34:03.920Z,-5.7
2019-01-21T04:35:06.237Z,-5.7
2019-01-21T04:36:08.593Z,-5.7
2019-01-21T04:37:10.656Z,-5.7
2019-01-21T04:38:13.270Z,-5.7
2019-01-21T04:39:15.307Z,-5.6
2019-01-21T04:40:17.338Z,-5.7
2019-01-21T04:41:19.433Z,-5.7
2019-01-21T04:42:21.467Z,-5.7
2019-01-21T04:43:23.542Z,-5.6
2019-01-21T04:44:26.473Z,-5.6
2019-01-21T04:45:28.896Z,-5.6
2019-01-21T04:46:31.985Z,-5.6
2019-01-21T04:47:34.009Z,-5.5
2019-01-21T04:48:36.050Z,-5.5
2019-01-21T04:49:38.113Z,-5.5
2019-01-21T04:50:40.751Z,-5.4
2019-01-21T04:51:43.150Z,-5.4
2019-01-21T04:52:45.207Z,-5.4
2019-01-21T04:53:47.252Z,-5.4
2019-01-21T04:54:49.694Z,-5.4
2019-01-21T04:55:52.341Z,-5.4
2019-01-21T04:56:54.975Z,-5.4
2019-01-21T04:57:57.185Z,-5.4
2019-01-21T04:59:00.192Z,-5.4
2019-01-21T05:00:02.243Z,-5.3
2019-01-21T05:01:04.586Z,-5.3
2019-01-21T05:02:06.678Z,-5.3
2019-01-21T05:03:08.726Z,-5.3
2019-01-21T05:04:10.781Z,-5.3
2019-01-21T05:05:12.837Z,-5.3
2019-01-21T05:06:14.889Z,-5.3
2019-01-21T05:07:16.941Z,-5.3
2019-01-21T05:08:18.998Z,-5.3
2019-01-21T05:09:22.315Z,-5.3
2019-01-21T05:10:25.619Z,-5.3
2019-01-21T05:11:27.678Z,-5.3
2019-01-21T05:12:29.703Z,-5.2
2019-01-21T05:13:32.029Z,-5.3
2019-01-21T05:14:34.063Z,-5.2
2019-01-21T05:15:36.123Z,-5.2
2019-01-21T05:16:38.446Z,-5.3
2019-01-21T05:17:40.906Z,-5.3
2019-01-21T05:18:42.982Z,-5.2
2019-01-21T05:19:45.289Z,-5.3
2019-01-21T05:20:47.747Z,-5.3
2019-01-21T05:21:51.012Z,-5.3
2019-01-21T05:22:53.663Z,-5.3
2019-01-21T05:23:55.990Z,-5.3
2019-01-21T05:24:58.045Z,-5.2
2019-01-21T05:26:00.380Z,-5.3
2019-01-21T05:27:02.689Z,-5.2
2019-01-21T05:28:04.751Z,-5.2
2019-01-21T05:29:06.809Z,-5.2
2019-01-21T05:30:09.121Z,-5.2
2019-01-21T05:31:11.174Z,-5.2
2019-01-21T05:32:13.228Z,-5.1
2019-01-21T05:33:16.018Z,-5.2
2019-01-21T05:34:18.388Z,-5.2
2019-01-21T05:35:20.439Z,-5.2
2019-01-21T05:36:24.336Z,-5.2
2019-01-21T05:37:26.390Z,-5.2
2019-01-21T05:38:28.417Z,-5.2
2019-01-21T05:39:30.441Z,-5.2
2019-01-21T05:40:32.731Z,-5.2
2019-01-21T05:41:34.768Z,-5.2
2019-01-21T05:42:36.805Z,-5.2
2019-01-21T05:43:38.821Z,-5.2
2019-01-21T05:44:40.847Z,-5.2
2019-01-21T05:45:42.862Z,-5.2
2019-01-21T05:46:44.907Z,-5.1
2019-01-21T05:47:47.206Z,-5.2
2019-01-21T05:48:50.540Z,-5.2
2019-01-21T05:49:52.552Z,-5.2
2019-01-21T05:50:54.624Z,-5.2
2019-01-21T05:51:56.652Z,-5.1
2019-01-21T05:52:59.067Z,-5.2
2019-01-21T05:54:01.765Z,-5.1
2019-01-21T05:55:04.088Z,-5.1
2019-01-21T05:56:06.110Z,-5.1
2019-01-21T05:57:08.136Z,-5.1
2019-01-21T05:58:10.441Z,-5
2019-01-21T05:59:12.750Z,-5.1
2019-01-21T06:00:15.055Z,-5.1
2019-01-21T06:01:17.741Z,-5
2019-01-21T06:02:20.041Z,-5
2019-01-21T06:03:22.057Z,-5
2019-01-21T06:04:24.370Z,-5
2019-01-21T06:05:26.375Z,-5
2019-01-21T06:06:28.395Z,-5
2019-01-21T06:07:30.412Z,-5
2019-01-21T06:08:32.424Z,-5
2019-01-21T06:09:34.725Z,-5
2019-01-21T06:10:36.740Z,-5
2019-01-21T06:11:38.761Z,-5
2019-01-21T06:12:41.159Z,-4.9
2019-01-21T06:13:43.187Z,-4.9
2019-01-21T06:14:45.486Z,-4.9
2019-01-21T06:15:47.499Z,-4.9
2019-01-21T06:16:49.514Z,-4.9
2019-01-21T06:17:51.800Z,-4.9
2019-01-21T06:18:58.569Z,-4.9
2019-01-21T06:20:00.595Z,-4.9
2019-01-21T06:21:02.924Z,-4.9
2019-01-21T06:22:04.935Z,-4.9
2019-01-21T06:23:07.271Z,-4.9
2019-01-21T06:24:09.296Z,-4.9
2019-01-21T06:25:11.705Z,-4.9
2019-01-21T06:26:14.012Z,-4.9
2019-01-21T06:27:16.300Z,-4.9
2019-01-21T06:28:18.315Z,-4.8
2019-01-21T06:29:20.336Z,-4.8
2019-01-21T06:30:22.354Z,-4.7
2019-01-21T06:31:24.354Z,-4.8
2019-01-21T06:32:26.380Z,-4.8
2019-01-21T06:33:28.445Z,-4.8
2019-01-21T06:34:30.462Z,-4.8
2019-01-21T06:35:32.492Z,-4.8
2019-01-21T06:36:34.791Z,-4.8
2019-01-21T06:37:36.801Z,-4.8
2019-01-21T06:38:38.831Z,-4.8
2019-01-21T06:39:40.845Z,-4.8
2019-01-21T06:40:42.860Z,-4.8
2019-01-21T06:41:45.155Z,-4.8
2019-01-21T06:42:47.189Z,-4.8
2019-01-21T06:43:49.198Z,-4.8
2019-01-21T06:44:51.216Z,-4.8
2019-01-21T06:45:53.234Z,-4.8
2019-01-21T06:46:55.540Z,-4.8
2019-01-21T06:47:57.548Z,-4.8
2019-01-21T06:49:06.234Z,-4.8
2019-01-21T06:50:09.656Z,-4.7
2019-01-21T06:51:11.666Z,-4.7
2019-01-21T06:52:13.991Z,-4.8
2019-01-21T06:53:16.005Z,-4.8
2019-01-21T06:54:18.031Z,-4.8
2019-01-21T06:55:20.038Z,-4.7
2019-01-21T06:56:22.072Z,-4.7
2019-01-21T06:57:24.098Z,-4.7
2019-01-21T06:58:26.109Z,-4.7
2019-01-21T06:59:28.187Z,-4.7
2019-01-21T07:00:30.192Z,-4.7
2019-01-21T07:01:33.690Z,-4.7
2019-01-21T07:02:36.656Z,-4.6
2019-01-21T07:03:38.673Z,-4.7
2019-01-21T07:04:40.689Z,-4.7
2019-01-21T07:05:42.991Z,-4.7
2019-01-21T07:06:45.001Z,-4.6
2019-01-21T07:07:47.022Z,-4.6
2019-01-21T07:08:49.051Z,-4.4
2019-01-21T07:09:51.069Z,-4.5
2019-01-21T07:10:53.074Z,-4.5
2019-01-21T07:11:55.396Z,-4.5
2019-01-21T07:12:57.700Z,-4.6
2019-01-21T07:13:59.718Z,-4.6
2019-01-21T07:15:01.787Z,-4.6
2019-01-21T07:16:03.791Z,-4.6
2019-01-21T07:17:06.092Z,-4.7
2019-01-21T07:18:08.107Z,-4.7
2019-01-21T07:19:12.172Z,-4.6
2019-01-21T07:20:14.172Z,-4.6
2019-01-21T07:21:16.201Z,-4.6
2019-01-21T07:22:18.508Z,-4.6
2019-01-21T07:23:20.521Z,-4.5
2019-01-21T07:24:22.829Z,-4.5
2019-01-21T07:25:24.833Z,-4.6
2019-01-21T07:26:26.850Z,-4.6
2019-01-21T07:27:28.855Z,-4.6
2019-01-21T07:28:31.165Z,-4.6
2019-01-21T07:29:33.172Z,-4.6
2019-01-21T07:30:35.194Z,-4.5
2019-01-21T07:31:37.506Z,-4.5
2019-01-21T07:32:39.794Z,-4.5
2019-01-21T07:33:41.840Z,-4.6
2019-01-21T07:34:43.852Z,-4.5
2019-01-21T07:35:45.895Z,-4.5
2019-01-21T07:36:47.916Z,-4.5
2019-01-21T07:37:49.945Z,-4.5
2019-01-21T07:38:51.962Z,-4.5
2019-01-21T07:39:53.982Z,-4.5
2019-01-21T07:40:55.999Z,-4.5
2019-01-21T07:41:58.382Z,-4.4
2019-01-21T07:43:01.443Z,-4.4
2019-01-21T07:44:03.748Z,-4.4
2019-01-21T07:45:05.746Z,-4.4
2019-01-21T07:46:07.767Z,-4.4
2019-01-21T07:47:09.780Z,-4.3
2019-01-21T07:48:11.793Z,-4.4
2019-01-21T07:49:19.057Z,-4.4
2019-01-21T07:50:21.634Z,-4.3
2019-01-21T07:51:23.668Z,-4.4
2019-01-21T07:52:25.688Z,-4.3
2019-01-21T07:53:27.728Z,-4.3
2019-01-21T07:54:30.013Z,-4.3
2019-01-21T07:55:32.306Z,-4.4
2019-01-21T07:56:34.719Z,-4.4
2019-01-21T07:57:36.733Z,-4.3
2019-01-21T07:58:38.734Z,-4.2
2019-01-21T07:59:40.757Z,-4.3
2019-01-21T08:00:42.770Z,-4.1
2019-01-21T08:01:44.802Z,-4.1
2019-01-21T08:02:46.804Z,-4.1
2019-01-21T08:03:48.856Z,-4.1
2019-01-21T08:04:50.878Z,-4.2
2019-01-21T08:05:52.885Z,-4.2
2019-01-21T08:06:59.615Z,-4.2
2019-01-21T08:08:01.628Z,-4.3
2019-01-21T08:09:03.633Z,-4.3
2019-01-21T08:10:06.032Z,-4.1
2019-01-21T08:11:08.064Z,-4.1
2019-01-21T08:12:10.078Z,-4.1
2019-01-21T08:13:12.095Z,-4.1
2019-01-21T08:14:14.138Z,-4.1
2019-01-21T08:15:16.153Z,-4.1
2019-01-21T08:16:18.170Z,-4.2
2019-01-21T08:17:20.574Z,-4.2
2019-01-21T08:18:22.573Z,-4.2
2019-01-21T08:19:25.439Z,-4.2
2019-01-21T08:20:27.472Z,-4.1
2019-01-21T08:21:29.770Z,-4.1
2019-01-21T08:22:31.798Z,-4.2
2019-01-21T08:23:34.092Z,-4.2
2019-01-21T08:24:36.107Z,-4.2
2019-01-21T08:25:38.116Z,-4.2
2019-01-21T08:26:40.154Z,-4.2
2019-01-21T08:27:42.170Z,-4.2
2019-01-21T08:28:44.189Z,-4.1
2019-01-21T08:29:46.209Z,-4.1
2019-01-21T08:30:48.229Z,-4.1
2019-01-21T08:31:50.260Z,-4.2
2019-01-21T08:32:52.271Z,-4.2
2019-01-21T08:33:55.196Z,-4.2
2019-01-21T08:34:57.201Z,-4.1
2019-01-21T08:35:59.505Z,-4.1
2019-01-21T08:37:01.522Z,-4.1
2019-01-21T08:38:03.858Z,-4.1
2019-01-21T08:39:05.865Z,-4.1
2019-01-21T08:40:07.890Z,-4.1
2019-01-21T08:41:09.938Z,-4.1
2019-01-21T08:42:11.942Z,-4.1
2019-01-21T08:43:14.255Z,-4.2
2019-01-21T08:44:16.287Z,-4.2
2019-01-21T08:45:18.304Z,-4.1
2019-01-21T08:46:22.559Z,-4.1
2019-01-21T08:47:24.873Z,-4.2
2019-01-21T08:48:26.892Z,-4.2
2019-01-21T08:49:31.854Z,-4.1
2019-01-21T08:50:33.878Z,-4.1
2019-01-21T08:51:36.749Z,-4
2019-01-21T08:52:38.778Z,-4.1
2019-01-21T08:53:41.098Z,-4.1
2019-01-21T08:54:43.109Z,-4.1
2019-01-21T08:55:45.135Z,-4.1
2019-01-21T08:56:47.539Z,-4.1
2019-01-21T08:57:49.836Z,-4.1
2019-01-21T08:58:51.843Z,-3.9
2019-01-21T08:59:53.871Z,-3.8
2019-01-21T09:00:55.889Z,-3.9
2019-01-21T09:01:57.909Z,-3.9
2019-01-21T09:02:59.947Z,-3.9
2019-01-21T09:04:01.946Z,-3.9
2019-01-21T09:05:03.974Z,-3.9
2019-01-21T09:06:06.378Z,-3.7
2019-01-21T09:07:08.398Z,-3.8
2019-01-21T09:08:10.399Z,-3.9
2019-01-21T09:09:12.434Z,-3.9
2019-01-21T09:10:14.453Z,-3.8
2019-01-21T09:11:16.467Z,-3.8
2019-01-21T09:12:18.503Z,-3.9
2019-01-21T09:13:20.517Z,-3.8
2019-01-21T09:14:22.532Z,-3.8
2019-01-21T09:15:24.538Z,-3.8
2019-01-21T09:16:26.554Z,-3.8
2019-01-21T09:17:28.612Z,-3.8
2019-01-21T09:18:30.620Z,-3.6
2019-01-21T09:19:38.576Z,-3.6
2019-01-21T09:20:40.877Z,-3.5
2019-01-21T09:21:43.166Z,-3.5
2019-01-21T09:22:45.190Z,-3.6
2019-01-21T09:23:47.497Z,-3.7
2019-01-21T09:24:49.499Z,-3.6
2019-01-21T09:25:51.516Z,-3.6
2019-01-21T09:26:53.827Z,-3.5
2019-01-21T09:27:56.122Z,-3.5
2019-01-21T09:28:58.152Z,-3.5
2019-01-21T09:30:00.228Z,-3.4
2019-01-21T09:31:02.533Z,-3.3
2019-01-21T09:32:04.890Z,-3.4
2019-01-21T09:33:06.925Z,-3.5
2019-01-21T09:34:08.939Z,-3.5
2019-01-21T09:35:11.253Z,-3.5
2019-01-21T09:36:13.306Z,-3.5
2019-01-21T09:37:15.314Z,-3.5
2019-01-21T09:38:17.342Z,-3.5
2019-01-21T09:39:19.639Z,-3.5
2019-01-21T09:40:21.662Z,-3.5
2019-01-21T09:41:23.664Z,-3.5
2019-01-21T09:42:25.699Z,-3.4
2019-01-21T09:43:27.734Z,-3.5
2019-01-21T09:44:29.757Z,-3.5
2019-01-21T09:45:31.784Z,-3.3
2019-01-21T09:46:35.164Z,-3.4
2019-01-21T09:47:37.569Z,-3.3
2019-01-21T09:48:39.981Z,-3.3
2019-01-21T09:49:45.184Z,-3.3
2019-01-21T09:50:47.189Z,-3.3
2019-01-21T09:51:49.216Z,-3.4
2019-01-21T09:52:51.516Z,-3.3
2019-01-21T09:53:53.526Z,-3.2
2019-01-21T09:54:55.833Z,-3.3
2019-01-21T09:55:57.847Z,-3.3
2019-01-21T09:57:00.144Z,-3.2
2019-01-21T09:58:02.192Z,-3.3
2019-01-21T09:59:04.215Z,-3.4
2019-01-21T10:00:06.519Z,-3.3
2019-01-21T10:01:08.814Z,-3.3
2019-01-21T10:02:10.942Z,-3.3
2019-01-21T10:03:12.974Z,-3.4
2019-01-21T10:04:15.001Z,-3.3
2019-01-21T10:05:17.034Z,-3.3
2019-01-21T10:06:19.421Z,-3.3
2019-01-21T10:07:21.447Z,-3.4
2019-01-21T10:08:23.752Z,-3.3
2019-01-21T10:09:25.762Z,-3.3
2019-01-21T10:10:29.220Z,-3.3
2019-01-21T10:11:31.229Z,-3.3
2019-01-21T10:12:33.958Z,-3.2
2019-01-21T10:13:35.973Z,-3.3
2019-01-21T10:14:38.021Z,-3.2
2019-01-21T10:15:40.031Z,-3.2
2019-01-21T10:16:42.044Z,-3.2
2019-01-21T10:17:44.068Z,-3.2
2019-01-21T10:18:46.078Z,-3.2
2019-01-21T10:19:53.058Z,-3.1
2019-01-21T10:20:55.469Z,-2.9
2019-01-21T10:21:57.767Z,-3
2019-01-21T10:22:59.781Z,-3
2019-01-21T10:24:02.103Z,-2.9
2019-01-21T10:25:04.123Z,-2.9
2019-01-21T10:26:06.173Z,-2.9
2019-01-21T10:27:08.194Z,-2.8
2019-01-21T10:28:10.486Z,-2.8
2019-01-21T10:29:12.505Z,-2.8
2019-01-21T10:30:14.520Z,-2.7
2019-01-21T10:31:16.551Z,-2.7
2019-01-21T10:32:18.570Z,-2.6
2019-01-21T10:33:21.004Z,-2.6
2019-01-21T10:34:24.916Z,-2.6
2019-01-21T10:35:26.922Z,-2.8
2019-01-21T10:36:28.946Z,-2.7
2019-01-21T10:37:30.973Z,-2.8
2019-01-21T10:38:33.001Z,-2.7
2019-01-21T10:39:35.006Z,-2.6
2019-01-21T10:40:37.056Z,-2.6
2019-01-21T10:41:39.356Z,-2.7
2019-01-21T10:42:41.370Z,-2.7
2019-01-21T10:43:43.401Z,-2.7
2019-01-21T10:44:45.413Z,-2.7
2019-01-21T10:45:47.718Z,-2.8
2019-01-21T10:46:49.737Z,-2.7
2019-01-21T10:47:52.063Z,-2.8
2019-01-21T10:48:54.068Z,-2.7
2019-01-21T10:49:58.614Z,-2.7
2019-01-21T10:51:00.689Z,-2.7
2019-01-21T10:52:02.700Z,-2.7
2019-01-21T10:53:04.729Z,-2.5
2019-01-21T10:54:06.752Z,-2.6
2019-01-21T10:55:08.758Z,-2.6
2019-01-21T10:56:10.775Z,-2.6
2019-01-21T10:57:12.803Z,-2.7
2019-01-21T10:58:15.105Z,-2.7
2019-01-21T10:59:17.401Z,-2.6
2019-01-21T11:00:19.435Z,-2.6
2019-01-21T11:01:21.725Z,-2.6
2019-01-21T11:02:24.025Z,-2.6
2019-01-21T11:03:26.092Z,-2.6
2019-01-21T11:04:28.093Z,-2.6
2019-01-21T11:05:30.119Z,-2.6
2019-01-21T11:06:32.137Z,-2.6
2019-01-21T11:07:34.165Z,-2.7
2019-01-21T11:08:36.171Z,-2.7
2019-01-21T11:09:38.192Z,-2.4
2019-01-21T11:10:40.216Z,-2.5
2019-01-21T11:11:42.244Z,-2.4
2019-01-21T11:12:44.629Z,-2.4
2019-01-21T11:13:46.682Z,-2.3
2019-01-21T11:14:48.703Z,-2.3
2019-01-21T11:15:50.725Z,-2.4
2019-01-21T11:16:52.754Z,-2.4
2019-01-21T11:17:54.763Z,-2.4
2019-01-21T11:18:56.784Z,-2.4
2019-01-21T11:20:05.321Z,-2.3
2019-01-21T11:21:07.640Z,-2.3
2019-01-21T11:22:09.652Z,-2.4
2019-01-21T11:23:11.687Z,-2.3
2019-01-21T11:24:14.630Z,-2.4
2019-01-21T11:25:17.479Z,-2.4
2019-01-21T11:26:19.521Z,-2.4
2019-01-21T11:27:21.539Z,-2.4
2019-01-21T11:28:23.555Z,-2.4
2019-01-21T11:29:25.615Z,-2.3
2019-01-21T11:30:28.025Z,-2.1
2019-01-21T11:31:30.042Z,-2.3
2019-01-21T11:32:32.072Z,-2.4
2019-01-21T11:33:34.481Z,-2.3
2019-01-21T11:34:36.491Z,-2.4
2019-01-21T11:35:38.517Z,-2.4
2019-01-21T11:36:40.541Z,-2.4
2019-01-21T11:37:42.542Z,-2.3
2019-01-21T11:38:44.568Z,-2.3
2019-01-21T11:39:46.880Z,-2.3
2019-01-21T11:40:48.898Z,-2.4
2019-01-21T11:41:50.926Z,-2.3
2019-01-21T11:42:53.216Z,-2.3
2019-01-21T11:43:55.230Z,-2.3
2019-01-21T11:44:57.242Z,-2.4
2019-01-21T11:45:59.269Z,-2.4
2019-01-21T11:47:01.585Z,-2.3
2019-01-21T11:48:03.615Z,-2.2
2019-01-21T11:49:05.629Z,-2.2
2019-01-21T11:50:11.718Z,-2.3
2019-01-21T11:51:13.727Z,-2.3
2019-01-21T11:52:18.705Z,-2.3
2019-01-21T11:53:21.100Z,-2.2
2019-01-21T11:54:23.138Z,-2.2
2019-01-21T11:55:25.151Z,-2.2
2019-01-21T11:56:27.170Z,-2.2
2019-01-21T11:57:29.193Z,-2.2
2019-01-21T11:58:31.215Z,-2.1
2019-01-21T11:59:33.250Z,-2
2019-01-21T12:00:35.551Z,-2
2019-01-21T12:01:37.566Z,-2
2019-01-21T12:02:39.599Z,-2
2019-01-21T12:03:41.642Z,-2.1
2019-01-21T12:04:43.669Z,-2.2
2019-01-21T12:05:46.273Z,-2.1
2019-01-21T12:06:48.680Z,-2.1
2019-01-21T12:07:50.693Z,-2.1
2019-01-21T12:08:52.711Z,-2.1
2019-01-21T12:09:54.745Z,-2.1
2019-01-21T12:10:57.035Z,-2.2
2019-01-21T12:11:59.063Z,-2.3
2019-01-21T12:13:01.082Z,-2.2
2019-01-21T12:14:03.095Z,-2.2
2019-01-21T12:15:05.135Z,-2.1
2019-01-21T12:16:07.162Z,-2.1
2019-01-21T12:17:09.349Z,-2.3
2019-01-21T12:18:11.372Z,-2.2
2019-01-21T12:19:13.406Z,-2.2
2019-01-21T12:20:18.330Z,-2.2
2019-01-21T12:21:20.630Z,-2.3
2019-01-21T12:22:22.652Z,-2.3
2019-01-21T12:23:24.667Z,-2.3
2019-01-21T12:24:28.168Z,-2.3
2019-01-21T12:25:30.184Z,-2.3
2019-01-21T12:26:32.207Z,-2.3
2019-01-21T12:27:34.601Z,-2.3
2019-01-21T12:28:36.628Z,-2.3
2019-01-21T12:29:38.689Z,-2.2
2019-01-21T12:30:40.704Z,-2.2
2019-01-21T12:31:42.731Z,-2.3
2019-01-21T12:32:44.741Z,-2.2
2019-01-21T12:33:47.089Z,-2.2
2019-01-21T12:34:49.397Z,-2.2
2019-01-21T12:35:51.423Z,-2.2
2019-01-21T12:36:53.429Z,-2.1
2019-01-21T12:37:55.454Z,-2.3
2019-01-21T12:38:57.472Z,-2.2
2019-01-21T12:39:59.490Z,-2.3
2019-01-21T12:41:01.546Z,-2.3
2019-01-21T12:42:03.570Z,-2.3
2019-01-21T12:43:05.642Z,-2.2
2019-01-21T12:44:07.675Z,-2.2
2019-01-21T12:45:09.692Z,-2.2
2019-01-21T12:46:11.710Z,-2.2
2019-01-21T12:47:13.735Z,-2.3
2019-01-21T12:48:15.742Z,-2.3
2019-01-21T12:49:17.772Z,-2.3
2019-01-21T12:50:25.135Z,-2.3
2019-01-21T12:51:27.164Z,-2.2
2019-01-21T12:52:29.163Z,-2.2
2019-01-21T12:53:31.481Z,-2.2
2019-01-21T12:54:33.495Z,-2.3
2019-01-21T12:55:35.517Z,-2.3
2019-01-21T12:56:37.964Z,-2.2
2019-01-21T12:57:39.978Z,-2.2
2019-01-21T12:58:42.001Z,-2.2
2019-01-21T12:59:44.018Z,-2.1
2019-01-21T13:00:46.338Z,-2.2
2019-01-21T13:01:48.365Z,-2.2
2019-01-21T13:02:50.400Z,-2.2
2019-01-21T13:03:52.425Z,-2.2
2019-01-21T13:04:54.456Z,-2.2
2019-01-21T13:05:56.461Z,-2.2
2019-01-21T13:06:58.482Z,-2.1
2019-01-21T13:08:00.796Z,-2.1
2019-01-21T13:09:02.820Z,-2.1
2019-01-21T13:10:04.845Z,-2.1
2019-01-21T13:11:07.217Z,-2.1
2019-01-21T13:12:09.637Z,-2.2
2019-01-21T13:13:11.664Z,-2.1
2019-01-21T13:14:13.691Z,-2.1
2019-01-21T13:15:15.988Z,-2.1
2019-01-21T13:16:17.997Z,-2.1
2019-01-21T13:17:20.037Z,-2.1
2019-01-21T13:18:22.609Z,-2.2
2019-01-21T13:19:24.634Z,-2.1
2019-01-21T13:20:32.030Z,-2.1
2019-01-21T13:21:35.824Z,-2
2019-01-21T13:22:37.847Z,-2.1
2019-01-21T13:23:40.153Z,-2.1
2019-01-21T13:24:42.186Z,-2.1
2019-01-21T13:25:44.191Z,-2
2019-01-21T13:26:46.222Z,-2.1
2019-01-21T13:27:48.237Z,-2.1
2019-01-21T13:28:50.259Z,-2.1
2019-01-21T13:29:52.296Z,-2.1
2019-01-21T13:30:54.304Z,-2.1
2019-01-21T13:31:56.325Z,-2.1
2019-01-21T13:32:58.346Z,-2
2019-01-21T13:34:00.384Z,-2
2019-01-21T13:35:02.744Z,-2.1
2019-01-21T13:36:04.763Z,-2
2019-01-21T13:37:06.785Z,-2.1
2019-01-21T13:38:09.001Z,-2.1
2019-01-21T13:39:11.314Z,-2.1
2019-01-21T13:40:13.335Z,-2
2019-01-21T13:41:15.363Z,-2
2019-01-21T13:42:17.389Z,-2
2019-01-21T13:43:19.404Z,-2
2019-01-21T13:44:22.800Z,-2
2019-01-21T13:45:24.817Z,-1.9
2019-01-21T13:46:26.876Z,-1.9
2019-01-21T13:47:28.903Z,-1.9
2019-01-21T13:48:30.921Z,-1.9
2019-01-21T13:49:33.313Z,-1.9
2019-01-21T13:50:38.315Z,-1.9
2019-01-21T13:51:40.336Z,-1.9
2019-01-21T13:52:42.355Z,-1.9